createdAt,value
2018-09-30T00:01:53.938Z,6.30
2018-09-30T00:04:22.486Z,6.20
2018-09-30T00:06:51.041Z,6.20
2018-09-30T00:09:22.521Z,6.10
2018-09-30T00:11:51.085Z,6.10
2018-09-30T00:14:19.622Z,6.10
2018-09-30T00:16:48.192Z,6.00
2018-09-30T00:19:16.773Z,5.80
2018-09-30T00:21:45.333Z,5.80
2018-09-30T00:24:19.294Z,5.70
2018-09-30T00:26:53.132Z,5.70
2018-09-30T00:29:21.713Z,5.70
2018-09-30T00:31:50.386Z,5.70
2018-09-30T00:34:25.447Z,5.70
2018-09-30T00:36:55.894Z,5.70
2018-09-30T00:39:24.733Z,5.70
2018-09-30T00:41:53.754Z,5.60
2018-09-30T00:44:22.518Z,5.60
2018-09-30T00:46:51.431Z,5.50
2018-09-30T00:49:19.977Z,5.60
2018-09-30T00:51:48.549Z,5.60
2018-09-30T00:54:17.086Z,5.60
2018-09-30T00:56:45.657Z,5.60
2018-09-30T00:59:14.213Z,5.70
2018-09-30T01:01:43.040Z,5.70
2018-09-30T01:04:11.621Z,5.70
2018-09-30T01:06:40.194Z,5.60
2018-09-30T01:09:11.162Z,5.40
2018-09-30T01:11:39.717Z,5.40
2018-09-30T01:14:08.418Z,5.40
2018-09-30T01:16:37.213Z,5.40
2018-09-30T01:19:05.874Z,5.30
2018-09-30T01:21:34.659Z,5.30
2018-09-30T01:24:03.286Z,5.20
2018-09-30T01:26:31.790Z,5.20
2018-09-30T01:29:00.647Z,5.30
2018-09-30T01:31:29.158Z,5.20
2018-09-30T01:33:58.648Z,5.30
2018-09-30T01:36:27.164Z,5.20
2018-09-30T01:38:55.713Z,5.20
2018-09-30T01:41:24.359Z,5.30
2018-09-30T01:43:52.905Z,5.40
2018-09-30T01:46:21.416Z,5.40
2018-09-30T01:48:49.958Z,5.30
2018-09-30T01:51:18.501Z,5.20
2018-09-30T01:53:47.042Z,5.20
2018-09-30T01:56:15.545Z,5.20
2018-09-30T01:58:44.085Z,5.10
2018-09-30T02:01:12.609Z,5.00
2018-09-30T02:03:41.156Z,5.00
2018-09-30T02:06:09.698Z,5.00
2018-09-30T02:08:38.316Z,5.00
2018-09-30T02:11:07.050Z,5.00
2018-09-30T02:13:35.597Z,5.10
2018-09-30T02:16:04.109Z,5.20
2018-09-30T02:18:32.683Z,5.10
2018-09-30T02:21:01.198Z,5.00
2018-09-30T02:23:29.763Z,4.90
2018-09-30T02:25:58.278Z,4.90
2018-09-30T02:28:26.817Z,4.90
2018-09-30T02:30:55.338Z,4.90
2018-09-30T02:33:23.894Z,4.80
2018-09-30T02:35:52.455Z,4.80
2018-09-30T02:38:21.019Z,4.80
2018-09-30T02:40:49.569Z,4.80
2018-09-30T02:43:18.111Z,4.90
2018-09-30T02:45:46.621Z,4.90
2018-09-30T02:48:15.161Z,4.90
2018-09-30T02:50:43.679Z,4.80
2018-09-30T02:53:12.229Z,4.70
2018-09-30T02:55:40.742Z,4.80
2018-09-30T02:58:09.295Z,4.90
2018-09-30T03:00:37.857Z,4.90
2018-09-30T03:03:06.401Z,4.90
2018-09-30T03:05:34.942Z,4.90
2018-09-30T03:08:08.884Z,4.90
2018-09-30T03:10:37.418Z,4.80
2018-09-30T03:13:05.946Z,4.80
2018-09-30T03:15:34.493Z,4.80
2018-09-30T03:18:03.053Z,4.70
2018-09-30T03:20:31.616Z,4.70
2018-09-30T03:23:00.166Z,4.60
2018-09-30T03:25:28.717Z,4.50
2018-09-30T03:27:57.255Z,4.50
2018-09-30T03:30:25.803Z,4.50
2018-09-30T03:32:54.333Z,4.50
2018-09-30T03:35:22.885Z,4.50
2018-09-30T03:37:51.794Z,4.50
2018-09-30T03:40:20.338Z,4.50
2018-09-30T03:42:48.842Z,4.60
2018-09-30T03:45:17.609Z,4.50
2018-09-30T03:47:46.125Z,4.50
2018-09-30T03:50:14.674Z,4.40
2018-09-30T03:52:43.190Z,4.40
2018-09-30T03:55:11.741Z,4.40
2018-09-30T03:57:40.262Z,4.30
2018-09-30T04:00:08.817Z,4.30
2018-09-30T04:02:37.334Z,4.30
2018-09-30T04:05:05.910Z,4.20
2018-09-30T04:07:34.433Z,4.20
2018-09-30T04:10:03.143Z,4.20
2018-09-30T04:12:31.537Z,4.20
2018-09-30T04:15:00.208Z,4.20
2018-09-30T04:17:28.785Z,4.10
2018-09-30T04:19:57.320Z,4.20
2018-09-30T04:22:25.849Z,4.20
2018-09-30T04:24:54.494Z,4.20
2018-09-30T04:27:23.021Z,4.10
2018-09-30T04:29:51.584Z,4.00
2018-09-30T04:32:20.117Z,4.00
2018-09-30T04:34:48.677Z,4.00
2018-09-30T04:37:17.206Z,4.10
2018-09-30T04:39:45.731Z,4.00
2018-09-30T04:42:14.366Z,4.00
2018-09-30T04:44:42.894Z,4.00
2018-09-30T04:47:11.446Z,4.00
2018-09-30T04:49:39.982Z,3.90
2018-09-30T04:52:08.554Z,3.90
2018-09-30T04:54:37.096Z,3.90
2018-09-30T04:57:05.641Z,3.90
2018-09-30T04:59:34.167Z,3.80
2018-09-30T05:02:02.781Z,3.90
2018-09-30T05:04:31.371Z,3.90
2018-09-30T05:06:59.928Z,3.90
2018-09-30T05:09:28.449Z,3.80
2018-09-30T05:11:57.008Z,3.80
2018-09-30T05:14:25.609Z,3.70
2018-09-30T05:16:54.494Z,3.70
2018-09-30T05:19:23.071Z,3.80
2018-09-30T05:21:51.636Z,3.80
2018-09-30T05:24:20.230Z,3.70
2018-09-30T05:26:48.829Z,3.70
2018-09-30T05:29:17.356Z,3.70
2018-09-30T05:31:45.905Z,3.80
2018-09-30T05:34:14.446Z,3.80
2018-09-30T05:36:43.001Z,3.80
2018-09-30T05:39:12.149Z,3.80
2018-09-30T05:41:40.748Z,3.70
2018-09-30T05:44:09.528Z,3.70
2018-09-30T05:46:38.348Z,3.80
2018-09-30T05:49:07.370Z,3.70
2018-09-30T05:51:35.902Z,3.70
2018-09-30T05:54:04.441Z,3.70
2018-09-30T05:56:32.989Z,3.80
2018-09-30T05:59:01.515Z,3.80
2018-09-30T06:01:30.857Z,3.80
2018-09-30T06:03:59.492Z,3.80
2018-09-30T06:06:28.937Z,3.60
2018-09-30T06:08:57.476Z,3.70
2018-09-30T06:11:26.045Z,3.70
2018-09-30T06:13:54.606Z,3.70
2018-09-30T06:16:23.142Z,3.80
2018-09-30T06:18:51.693Z,3.90
2018-09-30T06:21:20.257Z,3.90
2018-09-30T06:23:48.795Z,3.90
2018-09-30T06:26:17.325Z,4.00
2018-09-30T06:28:45.871Z,4.00
2018-09-30T06:31:14.421Z,3.90
2018-09-30T06:33:42.977Z,4.00
2018-09-30T06:36:11.509Z,4.10
2018-09-30T06:38:40.076Z,4.30
2018-09-30T06:41:09.470Z,4.30
2018-09-30T06:43:38.027Z,4.50
2018-09-30T06:46:06.563Z,4.60
2018-09-30T06:48:35.126Z,4.80
2018-09-30T06:51:03.709Z,4.80
2018-09-30T06:53:32.275Z,4.70
2018-09-30T06:56:00.807Z,4.80
2018-09-30T06:58:29.415Z,4.80
2018-09-30T07:00:58.015Z,5.00
2018-09-30T07:03:26.623Z,5.10
2018-09-30T07:05:55.153Z,5.20
2018-09-30T07:08:23.705Z,5.20
2018-09-30T07:10:52.336Z,5.30
2018-09-30T07:13:20.869Z,5.50
2018-09-30T07:15:49.393Z,5.60
2018-09-30T07:18:17.954Z,5.80
2018-09-30T07:20:46.457Z,5.90
2018-09-30T07:23:15.192Z,6.00
2018-09-30T07:25:43.762Z,6.20
2018-09-30T07:28:18.782Z,6.30
2018-09-30T07:30:47.325Z,6.50
2018-09-30T07:33:16.095Z,6.60
2018-09-30T07:35:44.597Z,6.70
2018-09-30T07:38:13.128Z,6.70
2018-09-30T07:40:41.640Z,6.90
2018-09-30T07:43:10.180Z,7.00
2018-09-30T07:45:38.715Z,7.10
2018-09-30T07:48:07.286Z,7.20
2018-09-30T07:50:35.815Z,7.30
2018-09-30T07:53:04.378Z,7.40
2018-09-30T07:55:32.902Z,7.50
2018-09-30T07:58:01.438Z,7.60
2018-09-30T08:00:29.961Z,7.70
2018-09-30T08:02:58.481Z,7.90
2018-09-30T08:05:27.027Z,8.10
2018-09-30T08:07:55.525Z,8.20
2018-09-30T08:10:24.089Z,8.20
2018-09-30T08:12:52.651Z,8.30
2018-09-30T08:15:21.217Z,8.50
2018-09-30T08:17:49.757Z,8.60
2018-09-30T08:20:18.378Z,8.80
2018-09-30T08:22:48.612Z,8.90
2018-09-30T08:25:17.208Z,9.10
2018-09-30T08:27:45.741Z,9.30
2018-09-30T08:30:14.295Z,9.50
2018-09-30T08:32:42.866Z,9.80
2018-09-30T08:35:11.466Z,10.00
2018-09-30T08:37:45.261Z,10.20
2018-09-30T08:40:17.448Z,10.70
2018-09-30T08:42:45.969Z,10.70
2018-09-30T08:45:14.554Z,10.80
2018-09-30T08:47:43.161Z,10.80
2018-09-30T08:50:11.664Z,10.90
2018-09-30T08:52:40.185Z,11.00
2018-09-30T08:55:08.746Z,11.10
2018-09-30T08:57:37.274Z,11.30
2018-09-30T09:00:05.913Z,11.30
2018-09-30T09:02:34.478Z,11.40
2018-09-30T09:05:03.654Z,11.60
2018-09-30T09:07:32.197Z,11.70
2018-09-30T09:10:00.753Z,11.90
2018-09-30T09:12:29.382Z,12.20
2018-09-30T09:14:57.942Z,12.40
2018-09-30T09:17:26.461Z,12.40
2018-09-30T09:19:55.165Z,12.40
2018-09-30T09:22:23.692Z,12.40
2018-09-30T09:24:52.258Z,12.60
2018-09-30T09:27:20.787Z,12.60
2018-09-30T09:29:50.028Z,12.80
2018-09-30T09:32:18.541Z,12.80
2018-09-30T09:34:47.107Z,12.90
2018-09-30T09:37:15.625Z,13.10
2018-09-30T09:39:44.336Z,13.40
2018-09-30T09:42:12.914Z,13.30
2018-09-30T09:44:41.461Z,13.40
2018-09-30T09:47:10.056Z,13.40
2018-09-30T09:49:38.606Z,13.60
2018-09-30T09:52:07.169Z,13.90
2018-09-30T09:54:36.089Z,13.80
2018-09-30T09:57:04.631Z,13.90
2018-09-30T09:59:33.221Z,14.10
2018-09-30T10:02:01.850Z,14.10
2018-09-30T10:04:30.396Z,14.20
2018-09-30T10:06:59.568Z,14.40
2018-09-30T10:09:28.162Z,14.50
2018-09-30T10:11:56.748Z,14.50
2018-09-30T10:14:25.503Z,14.50
2018-09-30T10:16:54.589Z,14.60
2018-09-30T10:19:23.237Z,14.70
2018-09-30T10:21:51.759Z,14.70
2018-09-30T10:24:20.272Z,14.60
2018-09-30T10:26:48.809Z,14.70
2018-09-30T10:29:17.318Z,14.70
2018-09-30T10:31:45.933Z,14.80
2018-09-30T10:34:14.448Z,14.90
2018-09-30T10:36:42.995Z,15.10
2018-09-30T10:39:12.114Z,15.20
2018-09-30T10:41:41.098Z,15.40
2018-09-30T10:44:10.070Z,15.40
2018-09-30T10:46:38.638Z,15.40
2018-09-30T10:49:07.505Z,15.50
2018-09-30T10:51:36.045Z,15.40
2018-09-30T10:54:04.578Z,15.40
2018-09-30T10:56:33.122Z,15.40
2018-09-30T10:59:01.662Z,15.50
2018-09-30T11:01:30.310Z,15.70
2018-09-30T11:03:58.842Z,15.70
2018-09-30T11:06:27.526Z,15.80
2018-09-30T11:08:56.583Z,15.90
2018-09-30T11:11:25.398Z,16.00
2018-09-30T11:13:54.034Z,16.10
2018-09-30T11:16:22.911Z,16.10
2018-09-30T11:18:51.549Z,16.10
2018-09-30T11:21:20.138Z,16.30
2018-09-30T11:23:48.666Z,16.30
2018-09-30T11:26:17.278Z,16.40
2018-09-30T11:28:45.796Z,16.40
2018-09-30T11:31:14.466Z,16.50
2018-09-30T11:33:43.002Z,16.50
2018-09-30T11:36:11.557Z,16.40
2018-09-30T11:38:40.084Z,16.50
2018-09-30T11:41:08.682Z,16.50
2018-09-30T11:43:37.250Z,16.70
2018-09-30T11:46:05.791Z,16.80
2018-09-30T11:48:34.357Z,16.80
2018-09-30T11:51:03.530Z,17.00
2018-09-30T11:53:32.091Z,16.90
2018-09-30T11:56:00.620Z,16.90
2018-09-30T11:58:29.172Z,17.00
2018-09-30T12:00:57.739Z,16.90
2018-09-30T12:03:26.338Z,17.00
2018-09-30T12:05:54.861Z,17.10
2018-09-30T12:08:23.418Z,17.10
2018-09-30T12:10:51.962Z,17.10
2018-09-30T12:13:20.550Z,17.10
2018-09-30T12:15:49.085Z,17.20
2018-09-30T12:18:17.652Z,17.30
2018-09-30T12:20:46.163Z,17.30
2018-09-30T12:23:14.706Z,17.40
2018-09-30T12:25:43.377Z,17.50
2018-09-30T12:28:11.890Z,17.50
2018-09-30T12:30:40.418Z,17.50
2018-09-30T12:33:08.968Z,17.50
2018-09-30T12:35:37.488Z,17.60
2018-09-30T12:38:06.034Z,17.70
2018-09-30T12:40:34.561Z,17.60
2018-09-30T12:43:03.097Z,17.70
2018-09-30T12:45:31.742Z,17.80
2018-09-30T12:48:00.285Z,17.80
2018-09-30T12:50:28.798Z,17.70
2018-09-30T12:52:57.337Z,17.70
2018-09-30T12:55:25.858Z,17.90
2018-09-30T12:57:54.449Z,17.80
2018-09-30T13:00:22.966Z,17.80
2018-09-30T13:02:51.526Z,17.80
2018-09-30T13:05:20.128Z,17.80
2018-09-30T13:07:48.642Z,17.70
2018-09-30T13:10:17.202Z,17.70
2018-09-30T13:12:45.801Z,17.80
2018-09-30T13:15:14.341Z,18.00
2018-09-30T13:17:42.861Z,18.00
2018-09-30T13:20:11.433Z,18.10
2018-09-30T13:22:40.198Z,18.00
2018-09-30T13:25:08.760Z,18.00
2018-09-30T13:27:37.285Z,18.10
2018-09-30T13:30:06.077Z,18.10
2018-09-30T13:32:34.628Z,18.10
2018-09-30T13:35:03.185Z,18.10
2018-09-30T13:37:33.048Z,18.10
2018-09-30T13:40:01.603Z,18.10
2018-09-30T13:42:32.189Z,18.10
2018-09-30T13:45:00.977Z,18.30
2018-09-30T13:47:31.219Z,18.30
2018-09-30T13:49:59.958Z,18.20
2018-09-30T13:52:32.034Z,18.30
2018-09-30T13:55:00.649Z,18.20
2018-09-30T13:57:29.173Z,18.20
2018-09-30T13:59:57.749Z,18.20
2018-09-30T14:02:26.313Z,18.20
2018-09-30T14:04:55.434Z,18.30
2018-09-30T14:07:23.978Z,18.30
2018-09-30T14:09:52.581Z,18.30
2018-09-30T14:12:21.217Z,18.20
2018-09-30T14:14:49.794Z,18.20
2018-09-30T14:17:18.409Z,18.10
2018-09-30T14:19:46.985Z,18.20
2018-09-30T14:22:15.492Z,18.20
2018-09-30T14:24:45.044Z,18.20
2018-09-30T14:27:13.668Z,18.30
2018-09-30T14:29:42.232Z,18.30
2018-09-30T14:32:10.761Z,18.40
2018-09-30T14:34:39.517Z,18.30
2018-09-30T14:37:08.057Z,18.40
2018-09-30T14:39:36.624Z,18.30
2018-09-30T14:42:05.229Z,18.30
2018-09-30T14:44:33.777Z,18.30
2018-09-30T14:47:02.341Z,18.40
2018-09-30T14:49:30.889Z,18.50
2018-09-30T14:51:59.426Z,18.40
2018-09-30T14:54:28.164Z,18.30
2018-09-30T14:56:56.646Z,18.30
2018-09-30T14:59:25.249Z,18.40
2018-09-30T15:01:53.797Z,18.30
2018-09-30T15:04:22.413Z,18.30
2018-09-30T15:06:50.977Z,18.20
2018-09-30T15:09:19.526Z,18.30
2018-09-30T15:11:48.139Z,18.20
2018-09-30T15:14:16.657Z,18.20
2018-09-30T15:16:45.218Z,18.10
2018-09-30T15:19:13.765Z,18.10
2018-09-30T15:21:42.678Z,18.20
2018-09-30T15:24:11.212Z,18.10
2018-09-30T15:26:39.761Z,18.10
2018-09-30T15:29:08.295Z,18.10
2018-09-30T15:31:36.858Z,18.00
2018-09-30T15:34:06.412Z,18.10
2018-09-30T15:36:34.994Z,18.00
2018-09-30T15:39:05.124Z,18.00
2018-09-30T15:41:33.730Z,17.90
2018-09-30T15:44:02.343Z,17.90
2018-09-30T15:46:31.397Z,17.90
2018-09-30T15:49:00.099Z,17.80
2018-09-30T15:51:28.822Z,17.80
2018-09-30T15:53:57.569Z,17.80
2018-09-30T15:56:26.137Z,17.70
2018-09-30T15:58:54.680Z,17.70
2018-09-30T16:01:23.472Z,17.70
2018-09-30T16:03:52.407Z,17.80
2018-09-30T16:06:21.019Z,17.70
2018-09-30T16:08:49.813Z,17.50
2018-09-30T16:11:18.377Z,17.40
2018-09-30T16:13:46.925Z,17.30
2018-09-30T16:16:15.490Z,17.30
2018-09-30T16:18:44.048Z,17.20
2018-09-30T16:21:13.009Z,17.10
2018-09-30T16:23:41.833Z,16.90
2018-09-30T16:26:10.398Z,16.80
2018-09-30T16:28:38.953Z,16.80
2018-09-30T16:31:07.541Z,16.70
2018-09-30T16:33:36.272Z,16.60
2018-09-30T16:36:04.873Z,16.50
2018-09-30T16:38:33.446Z,16.50
2018-09-30T16:41:02.013Z,16.40
2018-09-30T16:43:30.551Z,16.30
2018-09-30T16:45:59.296Z,16.20
2018-09-30T16:48:27.881Z,16.10
2018-09-30T16:50:56.456Z,16.00
2018-09-30T16:53:24.985Z,16.00
2018-09-30T16:55:53.544Z,16.10
2018-09-30T16:58:22.066Z,15.90
2018-09-30T17:00:50.789Z,15.80
2018-09-30T17:03:19.323Z,15.70
2018-09-30T17:05:47.870Z,15.60
2018-09-30T17:08:16.439Z,15.50
2018-09-30T17:10:45.078Z,15.50
2018-09-30T17:13:14.026Z,15.40
2018-09-30T17:15:42.619Z,15.30
2018-09-30T17:18:11.194Z,15.20
2018-09-30T17:20:39.743Z,15.20
2018-09-30T17:23:08.297Z,15.20
2018-09-30T17:25:36.944Z,15.10
2018-09-30T17:28:05.497Z,15.10
2018-09-30T17:30:34.006Z,15.10
2018-09-30T17:33:02.557Z,15.00
2018-09-30T17:35:31.085Z,15.00
2018-09-30T17:37:59.959Z,14.90
2018-09-30T17:40:28.437Z,14.90
2018-09-30T17:42:56.961Z,14.90
2018-09-30T17:45:25.494Z,14.80
2018-09-30T17:47:54.081Z,14.70
2018-09-30T17:50:22.636Z,14.60
2018-09-30T17:52:51.659Z,14.50
2018-09-30T17:55:20.173Z,14.40
2018-09-30T17:57:48.742Z,14.30
2018-09-30T18:00:17.287Z,14.10
2018-09-30T18:02:46.439Z,14.00
2018-09-30T18:05:14.960Z,14.10
2018-09-30T18:07:43.538Z,14.10
2018-09-30T18:10:12.064Z,14.10
2018-09-30T18:12:40.750Z,14.20
2018-09-30T18:15:09.390Z,14.20
2018-09-30T18:17:38.038Z,14.20
2018-09-30T18:20:07.648Z,14.20
2018-09-30T18:22:36.244Z,14.10
2018-09-30T18:25:04.828Z,14.30
2018-09-30T18:27:34.120Z,14.30
2018-09-30T18:30:02.694Z,14.30
2018-09-30T18:32:31.254Z,14.30
2018-09-30T18:34:59.934Z,14.30
2018-09-30T18:37:28.501Z,14.20
2018-09-30T18:39:57.081Z,14.20
2018-09-30T18:42:25.661Z,14.20
2018-09-30T18:44:54.185Z,14.10
2018-09-30T18:47:22.762Z,14.00
2018-09-30T18:49:51.299Z,14.00
2018-09-30T18:52:19.854Z,13.80
2018-09-30T18:54:48.377Z,13.70
2018-09-30T18:57:17.041Z,13.70
2018-09-30T18:59:45.609Z,13.60
2018-09-30T19:02:14.201Z,13.60
2018-09-30T19:04:42.765Z,13.50
2018-09-30T19:07:11.313Z,13.50
2018-09-30T19:09:39.854Z,13.30
2018-09-30T19:12:08.810Z,13.20
2018-09-30T19:14:37.298Z,13.20
2018-09-30T19:17:05.848Z,13.20
2018-09-30T19:19:34.429Z,13.20
2018-09-30T19:22:02.961Z,13.20
2018-09-30T19:24:31.522Z,13.30
2018-09-30T19:27:00.054Z,13.20
2018-09-30T19:29:28.769Z,13.30
2018-09-30T19:31:57.547Z,13.20
2018-09-30T19:34:26.133Z,13.10
2018-09-30T19:36:54.662Z,13.10
2018-09-30T19:39:23.224Z,13.00
2018-09-30T19:41:51.831Z,13.10
2018-09-30T19:44:20.454Z,13.00
2018-09-30T19:46:48.993Z,13.00
2018-09-30T19:49:17.564Z,13.00
2018-09-30T19:51:46.126Z,13.00
2018-09-30T19:54:14.670Z,13.10
2018-09-30T19:56:43.245Z,13.10
2018-09-30T19:59:11.802Z,13.10
2018-09-30T20:01:40.434Z,13.00
2018-09-30T20:04:08.990Z,13.00
2018-09-30T20:06:37.542Z,12.90
2018-09-30T20:09:07.666Z,12.80
2018-09-30T20:11:36.409Z,12.80
2018-09-30T20:14:04.971Z,12.80
2018-09-30T20:16:33.741Z,12.70
2018-09-30T20:19:02.346Z,12.70
2018-09-30T20:21:30.901Z,12.70
2018-09-30T20:23:59.460Z,12.60
2018-09-30T20:26:28.072Z,12.50
2018-09-30T20:28:56.598Z,12.40
2018-09-30T20:31:25.953Z,12.40
2018-09-30T20:33:55.301Z,12.40
2018-09-30T20:36:23.913Z,12.40
2018-09-30T20:38:52.445Z,12.40
2018-09-30T20:41:21.033Z,12.40
2018-09-30T20:43:49.946Z,12.40
2018-09-30T20:46:18.864Z,12.40
2018-09-30T20:48:47.412Z,12.40
2018-09-30T20:51:15.979Z,12.30
2018-09-30T20:53:44.517Z,12.30
2018-09-30T20:56:13.113Z,12.30
2018-09-30T20:58:41.649Z,12.20
2018-09-30T21:01:10.194Z,12.10
2018-09-30T21:03:38.965Z,12.10
2018-09-30T21:06:15.131Z,11.90
2018-09-30T21:08:44.809Z,11.90
2018-09-30T21:11:13.357Z,11.90
2018-09-30T21:13:42.281Z,11.80
2018-09-30T21:16:10.833Z,11.70
2018-09-30T21:18:39.405Z,11.70
2018-09-30T21:21:07.911Z,11.60
2018-09-30T21:23:36.451Z,11.50
2018-09-30T21:26:05.005Z,11.40
2018-09-30T21:28:33.529Z,11.40
2018-09-30T21:31:02.097Z,11.40
2018-09-30T21:33:30.658Z,11.30
2018-09-30T21:35:59.199Z,11.30
2018-09-30T21:38:27.713Z,11.20
2018-09-30T21:40:56.378Z,11.20
2018-09-30T21:43:24.892Z,11.10
2018-09-30T21:45:53.434Z,11.20
2018-09-30T21:48:22.164Z,11.10
2018-09-30T21:50:50.706Z,11.00
2018-09-30T21:53:19.537Z,11.00
2018-09-30T21:55:48.078Z,11.00
2018-09-30T21:58:16.594Z,10.90
2018-09-30T22:00:50.518Z,10.90
2018-09-30T22:03:19.046Z,10.80
2018-09-30T22:05:47.590Z,10.80
2018-09-30T22:08:16.097Z,10.70
2018-09-30T22:10:45.438Z,10.50
2018-09-30T22:13:14.285Z,10.60
2018-09-30T22:15:43.071Z,10.60
2018-09-30T22:18:11.849Z,10.50
2018-09-30T22:20:40.454Z,10.50
2018-09-30T22:23:09.041Z,10.40
2018-09-30T22:25:37.596Z,10.40
2018-09-30T22:28:06.197Z,10.30
2018-09-30T22:30:34.853Z,10.30
2018-09-30T22:33:03.857Z,10.20
2018-09-30T22:35:32.517Z,10.20
2018-09-30T22:38:01.045Z,10.10
2018-09-30T22:40:29.606Z,10.10
2018-09-30T22:42:58.394Z,10.10
2018-09-30T22:45:26.988Z,10.00
2018-09-30T22:47:55.550Z,10.00
2018-09-30T22:50:24.149Z,10.00
2018-09-30T22:52:52.714Z,10.00
2018-09-30T22:55:21.274Z,10.00
2018-09-30T22:57:49.815Z,9.80
2018-09-30T23:00:18.398Z,9.80
2018-09-30T23:02:46.936Z,9.70
2018-09-30T23:05:15.493Z,9.60
2018-09-30T23:07:44.026Z,9.60
2018-09-30T23:10:13.373Z,9.60
2018-09-30T23:12:42.124Z,9.60
2018-09-30T23:15:11.038Z,9.60
2018-09-30T23:17:39.635Z,9.50
2018-09-30T23:20:13.566Z,9.50
2018-09-30T23:22:42.300Z,9.40
2018-09-30T23:25:11.045Z,9.40
2018-09-30T23:27:39.569Z,9.40
2018-09-30T23:30:08.285Z,9.30
2018-09-30T23:32:37.373Z,9.20
2018-09-30T23:35:05.937Z,9.10
2018-09-30T23:37:34.466Z,9.10
2018-09-30T23:40:03.249Z,9.10
2018-09-30T23:42:31.779Z,9.10
2018-09-30T23:45:00.320Z,9.00
2018-09-30T23:47:28.825Z,8.90
2018-09-30T23:49:57.355Z,8.90
2018-09-30T23:52:25.862Z,8.90
2018-09-30T23:54:54.400Z,8.80
2018-09-30T23:57:22.938Z,8.80
2018-09-30T23:59:51.457Z,8.70
